sensor_id;sensor_type;location;lat;lon;timestamp;P1;durP1;ratioP1;P2;durP2;ratioP2
13807;SDS011;40769;51.512;5.494;2022-11-06T00:00:03;5.20;;;2.65;;
13807;SDS011;40769;51.512;5.494;2022-11-06T00:02:30;2.95;;;2.30;;
13807;SDS011;40769;51.512;5.494;2022-11-06T00:04:56;2.72;;;2.40;;
13807;SDS011;40769;51.512;5.494;2022-11-06T00:07:45;4.07;;;2.50;;
13807;SDS011;40769;51.512;5.494;2022-11-06T00:10:12;3.53;;;2.67;;
13807;SDS011;40769;51.512;5.494;2022-11-06T00:12:38;2.97;;;2.50;;
13807;SDS011;40769;51.512;5.494;2022-11-06T00:15:04;4.63;;;2.55;;
13807;SDS011;40769;51.512;5.494;2022-11-06T00:17:30;3.75;;;2.33;;
13807;SDS011;40769;51.512;5.494;2022-11-06T00:19:56;3.47;;;2.33;;
13807;SDS011;40769;51.512;5.494;2022-11-06T00:22:21;2.78;;;1.95;;
13807;SDS011;40769;51.512;5.494;2022-11-06T00:24:47;4.18;;;2.28;;
13807;SDS011;40769;51.512;5.494;2022-11-06T00:27:13;2.28;;;1.90;;
13807;SDS011;40769;51.512;5.494;2022-11-06T00:29:39;2.95;;;2.08;;
13807;SDS011;40769;51.512;5.494;2022-11-06T00:32:05;2.83;;;2.05;;
13807;SDS011;40769;51.512;5.494;2022-11-06T00:34:31;4.38;;;2.20;;
13807;SDS011;40769;51.512;5.494;2022-11-06T00:36:57;3.17;;;2.17;;
13807;SDS011;40769;51.512;5.494;2022-11-06T00:39:22;2.97;;;2.50;;
13807;SDS011;40769;51.512;5.494;2022-11-06T00:41:48;4.35;;;2.35;;
13807;SDS011;40769;51.512;5.494;2022-11-06T00:44:13;2.88;;;2.10;;
13807;SDS011;40769;51.512;5.494;2022-11-06T00:46:39;3.42;;;2.30;;
13807;SDS011;40769;51.512;5.494;2022-11-06T00:49:04;2.70;;;1.90;;
13807;SDS011;40769;51.512;5.494;2022-11-06T00:51:31;3.10;;;1.83;;
13807;SDS011;40769;51.512;5.494;2022-11-06T00:54:00;2.25;;;1.80;;
13807;SDS011;40769;51.512;5.494;2022-11-06T00:56:29;1.77;;;1.60;;
13807;SDS011;40769;51.512;5.494;2022-11-06T00:58:57;4.28;;;2.13;;
13807;SDS011;40769;51.512;5.494;2022-11-06T01:01:24;2.70;;;2.20;;
13807;SDS011;40769;51.512;5.494;2022-11-06T01:03:54;3.95;;;2.40;;
13807;SDS011;40769;51.512;5.494;2022-11-06T01:06:22;3.97;;;2.20;;
13807;SDS011;40769;51.512;5.494;2022-11-06T01:08:50;2.67;;;2.08;;
13807;SDS011;40769;51.512;5.494;2022-11-06T01:13:43;2.42;;;1.85;;
13807;SDS011;40769;51.512;5.494;2022-11-06T01:16:11;2.65;;;2.17;;
13807;SDS011;40769;51.512;5.494;2022-11-06T01:18:39;2.50;;;1.98;;
13807;SDS011;40769;51.512;5.494;2022-11-06T01:21:07;2.08;;;1.70;;
13807;SDS011;40769;51.512;5.494;2022-11-06T01:23:35;2.50;;;1.83;;
13807;SDS011;40769;51.512;5.494;2022-11-06T01:26:01;3.50;;;2.10;;
13807;SDS011;40769;51.512;5.494;2022-11-06T01:28:29;3.03;;;1.73;;
13807;SDS011;40769;51.512;5.494;2022-11-06T01:30:56;2.75;;;2.08;;
13807;SDS011;40769;51.512;5.494;2022-11-06T01:33:30;3.97;;;2.25;;
13807;SDS011;40769;51.512;5.494;2022-11-06T01:35:56;2.95;;;1.83;;
13807;SDS011;40769;51.512;5.494;2022-11-06T01:38:21;3.05;;;1.75;;
13807;SDS011;40769;51.512;5.494;2022-11-06T01:40:47;3.15;;;2.00;;
13807;SDS011;40769;51.512;5.494;2022-11-06T01:43:23;4.18;;;2.03;;
13807;SDS011;40769;51.512;5.494;2022-11-06T01:46:08;3.45;;;2.10;;
13807;SDS011;40769;51.512;5.494;2022-11-06T01:48:34;1.40;;;1.30;;
13807;SDS011;40769;51.512;5.494;2022-11-06T01:51:02;2.13;;;1.52;;
13807;SDS011;40769;51.512;5.494;2022-11-06T01:53:28;2.97;;;1.85;;
13807;SDS011;40769;51.512;5.494;2022-11-06T01:55:55;3.55;;;2.25;;
13807;SDS011;40769;51.512;5.494;2022-11-06T01:58:25;3.83;;;1.90;;
13807;SDS011;40769;51.512;5.494;2022-11-06T02:00:55;3.10;;;1.80;;
13807;SDS011;40769;51.512;5.494;2022-11-06T02:03:21;3.35;;;1.90;;
13807;SDS011;40769;51.512;5.494;2022-11-06T02:05:49;3.45;;;2.03;;
13807;SDS011;40769;51.512;5.494;2022-11-06T02:08:16;2.45;;;1.80;;
13807;SDS011;40769;51.512;5.494;2022-11-06T02:10:43;2.33;;;1.70;;
13807;SDS011;40769;51.512;5.494;2022-11-06T02:16:07;2.28;;;1.67;;
13807;SDS011;40769;51.512;5.494;2022-11-06T02:24:24;3.15;;;1.85;;
13807;SDS011;40769;51.512;5.494;2022-11-06T02:32:11;2.35;;;1.50;;
13807;SDS011;40769;51.512;5.494;2022-11-06T02:34:42;4.72;;;2.22;;
13807;SDS011;40769;51.512;5.494;2022-11-06T02:37:11;2.25;;;1.70;;
13807;SDS011;40769;51.512;5.494;2022-11-06T02:39:41;3.10;;;1.77;;
13807;SDS011;40769;51.512;5.494;2022-11-06T02:42:09;4.10;;;1.55;;
13807;SDS011;40769;51.512;5.494;2022-11-06T02:44:36;2.15;;;1.58;;
13807;SDS011;40769;51.512;5.494;2022-11-06T02:47:05;2.75;;;1.52;;
13807;SDS011;40769;51.512;5.494;2022-11-06T02:52:04;3.15;;;1.92;;
13807;SDS011;40769;51.512;5.494;2022-11-06T02:54:56;4.72;;;1.70;;
13807;SDS011;40769;51.512;5.494;2022-11-06T02:57:33;3.95;;;1.70;;
13807;SDS011;40769;51.512;5.494;2022-11-06T03:00:09;3.67;;;1.70;;
13807;SDS011;40769;51.512;5.494;2022-11-06T03:02:45;3.22;;;1.70;;
13807;SDS011;40769;51.512;5.494;2022-11-06T03:05:19;3.35;;;1.90;;
13807;SDS011;40769;51.512;5.494;2022-11-06T03:08:01;2.95;;;1.83;;
13807;SDS011;40769;51.512;5.494;2022-11-06T03:11:23;3.10;;;1.58;;
13807;SDS011;40769;51.512;5.494;2022-11-06T03:21:54;2.90;;;1.85;;
13807;SDS011;40769;51.512;5.494;2022-11-06T03:24:26;2.75;;;1.70;;
13807;SDS011;40769;51.512;5.494;2022-11-06T03:27:16;3.70;;;1.85;;
13807;SDS011;40769;51.512;5.494;2022-11-06T03:29:48;2.13;;;1.60;;
13807;SDS011;40769;51.512;5.494;2022-11-06T03:32:33;4.03;;;2.00;;
13807;SDS011;40769;51.512;5.494;2022-11-06T03:38:06;1.83;;;1.40;;
13807;SDS011;40769;51.512;5.494;2022-11-06T03:40:36;4.30;;;1.70;;
13807;SDS011;40769;51.512;5.494;2022-11-06T03:43:07;3.15;;;1.70;;
13807;SDS011;40769;51.512;5.494;2022-11-06T03:45:35;2.67;;;1.70;;
13807;SDS011;40769;51.512;5.494;2022-11-06T03:48:12;3.60;;;1.50;;
13807;SDS011;40769;51.512;5.494;2022-11-06T03:53:14;3.35;;;1.75;;
13807;SDS011;40769;51.512;5.494;2022-11-06T03:55:54;2.97;;;1.70;;
13807;SDS011;40769;51.512;5.494;2022-11-06T03:58:25;4.03;;;1.83;;
13807;SDS011;40769;51.512;5.494;2022-11-06T04:00:55;3.25;;;1.75;;
13807;SDS011;40769;51.512;5.494;2022-11-06T04:03:25;3.53;;;1.90;;
13807;SDS011;40769;51.512;5.494;2022-11-06T04:06:39;3.65;;;1.90;;
13807;SDS011;40769;51.512;5.494;2022-11-06T04:08:47;2.38;;;1.60;;
13807;SDS011;40769;51.512;5.494;2022-11-06T04:11:35;2.33;;;1.50;;
13807;SDS011;40769;51.512;5.494;2022-11-06T04:14:21;2.72;;;1.50;;
13807;SDS011;40769;51.512;5.494;2022-11-06T04:16:55;3.28;;;1.50;;
13807;SDS011;40769;51.512;5.494;2022-11-06T04:19:27;1.83;;;1.25;;
13807;SDS011;40769;51.512;5.494;2022-11-06T04:24:38;2.55;;;1.73;;
13807;SDS011;40769;51.512;5.494;2022-11-06T04:27:38;4.03;;;1.70;;
13807;SDS011;40769;51.512;5.494;2022-11-06T04:30:28;2.33;;;1.60;;
13807;SDS011;40769;51.512;5.494;2022-11-06T04:36:01;2.35;;;1.50;;
13807;SDS011;40769;51.512;5.494;2022-11-06T04:38:43;2.88;;;1.80;;
13807;SDS011;40769;51.512;5.494;2022-11-06T04:44:06;3.63;;;1.77;;
13807;SDS011;40769;51.512;5.494;2022-11-06T04:46:59;2.58;;;1.40;;
13807;SDS011;40769;51.512;5.494;2022-11-06T04:49:26;4.18;;;1.67;;
13807;SDS011;40769;51.512;5.494;2022-11-06T04:51:54;1.73;;;1.40;;
13807;SDS011;40769;51.512;5.494;2022-11-06T04:54:22;2.40;;;1.83;;
13807;SDS011;40769;51.512;5.494;2022-11-06T04:56:48;1.48;;;1.20;;
13807;SDS011;40769;51.512;5.494;2022-11-06T04:59:15;3.00;;;1.48;;
13807;SDS011;40769;51.512;5.494;2022-11-06T05:01:41;2.95;;;1.25;;
13807;SDS011;40769;51.512;5.494;2022-11-06T05:04:08;2.70;;;1.42;;
13807;SDS011;40769;51.512;5.494;2022-11-06T05:06:34;2.67;;;1.70;;
13807;SDS011;40769;51.512;5.494;2022-11-06T05:09:00;3.63;;;1.55;;
13807;SDS011;40769;51.512;5.494;2022-11-06T05:11:25;5.40;;;1.98;;
13807;SDS011;40769;51.512;5.494;2022-11-06T05:13:51;4.22;;;1.73;;
13807;SDS011;40769;51.512;5.494;2022-11-06T05:16:16;3.17;;;1.92;;
13807;SDS011;40769;51.512;5.494;2022-11-06T05:18:42;3.03;;;1.67;;
13807;SDS011;40769;51.512;5.494;2022-11-06T05:21:08;2.22;;;1.65;;
13807;SDS011;40769;51.512;5.494;2022-11-06T05:23:52;2.35;;;1.70;;
13807;SDS011;40769;51.512;5.494;2022-11-06T05:26:18;4.00;;;1.58;;
13807;SDS011;40769;51.512;5.494;2022-11-06T05:28:43;2.45;;;1.58;;
13807;SDS011;40769;51.512;5.494;2022-11-06T05:31:09;5.35;;;1.42;;
13807;SDS011;40769;51.512;5.494;2022-11-06T05:33:34;3.20;;;1.75;;
13807;SDS011;40769;51.512;5.494;2022-11-06T05:36:00;2.28;;;1.40;;
13807;SDS011;40769;51.512;5.494;2022-11-06T05:38:30;2.85;;;1.85;;
13807;SDS011;40769;51.512;5.494;2022-11-06T05:40:56;2.63;;;1.73;;
13807;SDS011;40769;51.512;5.494;2022-11-06T05:43:22;2.40;;;1.70;;
13807;SDS011;40769;51.512;5.494;2022-11-06T05:45:48;2.55;;;2.35;;
13807;SDS011;40769;51.512;5.494;2022-11-06T05:48:13;3.45;;;1.60;;
13807;SDS011;40769;51.512;5.494;2022-11-06T05:50:39;2.25;;;1.30;;
13807;SDS011;40769;51.512;5.494;2022-11-06T05:53:04;2.30;;;1.70;;
13807;SDS011;40769;51.512;5.494;2022-11-06T05:55:30;2.28;;;1.52;;
13807;SDS011;40769;51.512;5.494;2022-11-06T05:57:56;2.35;;;1.42;;
13807;SDS011;40769;51.512;5.494;2022-11-06T06:00:21;2.78;;;1.58;;
13807;SDS011;40769;51.512;5.494;2022-11-06T06:02:47;2.42;;;1.48;;
13807;SDS011;40769;51.512;5.494;2022-11-06T06:05:12;2.35;;;1.40;;
13807;SDS011;40769;51.512;5.494;2022-11-06T06:07:38;2.08;;;1.60;;
13807;SDS011;40769;51.512;5.494;2022-11-06T06:10:04;2.17;;;1.40;;
13807;SDS011;40769;51.512;5.494;2022-11-06T06:12:30;2.65;;;1.30;;
13807;SDS011;40769;51.512;5.494;2022-11-06T06:14:56;2.58;;;1.30;;
13807;SDS011;40769;51.512;5.494;2022-11-06T06:17:21;2.15;;;1.55;;
13807;SDS011;40769;51.512;5.494;2022-11-06T06:19:47;3.20;;;1.63;;
13807;SDS011;40769;51.512;5.494;2022-11-06T06:22:12;2.38;;;1.40;;
13807;SDS011;40769;51.512;5.494;2022-11-06T06:24:38;3.35;;;1.88;;
13807;SDS011;40769;51.512;5.494;2022-11-06T06:27:04;2.78;;;1.50;;
13807;SDS011;40769;51.512;5.494;2022-11-06T06:29:30;2.95;;;1.67;;
13807;SDS011;40769;51.512;5.494;2022-11-06T06:31:56;3.28;;;1.40;;
13807;SDS011;40769;51.512;5.494;2022-11-06T06:34:21;2.88;;;1.30;;
13807;SDS011;40769;51.512;5.494;2022-11-06T06:36:50;3.15;;;1.73;;
13807;SDS011;40769;51.512;5.494;2022-11-06T06:39:17;2.05;;;1.48;;
13807;SDS011;40769;51.512;5.494;2022-11-06T06:41:43;3.05;;;1.63;;
13807;SDS011;40769;51.512;5.494;2022-11-06T06:44:09;2.13;;;1.70;;
13807;SDS011;40769;51.512;5.494;2022-11-06T06:46:35;1.92;;;1.40;;
13807;SDS011;40769;51.512;5.494;2022-11-06T06:49:01;2.75;;;1.58;;
13807;SDS011;40769;51.512;5.494;2022-11-06T06:51:26;2.08;;;1.40;;
13807;SDS011;40769;51.512;5.494;2022-11-06T06:53:52;2.20;;;1.73;;
13807;SDS011;40769;51.512;5.494;2022-11-06T06:56:17;1.95;;;1.30;;
13807;SDS011;40769;51.512;5.494;2022-11-06T06:58:43;1.88;;;1.50;;
13807;SDS011;40769;51.512;5.494;2022-11-06T07:01:08;3.40;;;1.48;;
13807;SDS011;40769;51.512;5.494;2022-11-06T07:03:35;3.45;;;1.63;;
13807;SDS011;40769;51.512;5.494;2022-11-06T07:06:01;1.88;;;1.50;;
13807;SDS011;40769;51.512;5.494;2022-11-06T07:08:27;2.30;;;1.40;;
13807;SDS011;40769;51.512;5.494;2022-11-06T07:11:26;2.17;;;1.52;;
13807;SDS011;40769;51.512;5.494;2022-11-06T07:13:45;2.08;;;1.52;;
13807;SDS011;40769;51.512;5.494;2022-11-06T07:16:11;2.38;;;1.50;;
13807;SDS011;40769;51.512;5.494;2022-11-06T07:18:37;1.92;;;1.40;;
13807;SDS011;40769;51.512;5.494;2022-11-06T07:21:04;2.28;;;1.52;;
13807;SDS011;40769;51.512;5.494;2022-11-06T07:23:34;2.67;;;1.67;;
13807;SDS011;40769;51.512;5.494;2022-11-06T07:26:00;2.05;;;1.55;;
13807;SDS011;40769;51.512;5.494;2022-11-06T07:28:25;2.35;;;1.30;;
13807;SDS011;40769;51.512;5.494;2022-11-06T07:30:51;3.53;;;1.80;;
13807;SDS011;40769;51.512;5.494;2022-11-06T07:33:17;2.75;;;1.77;;
13807;SDS011;40769;51.512;5.494;2022-11-06T07:35:43;2.58;;;1.70;;
13807;SDS011;40769;51.512;5.494;2022-11-06T07:38:08;3.13;;;1.50;;
13807;SDS011;40769;51.512;5.494;2022-11-06T07:40:34;1.83;;;1.10;;
13807;SDS011;40769;51.512;5.494;2022-11-06T07:43:04;1.90;;;1.35;;
13807;SDS011;40769;51.512;5.494;2022-11-06T07:45:30;2.53;;;1.40;;
13807;SDS011;40769;51.512;5.494;2022-11-06T07:47:56;3.22;;;1.25;;
13807;SDS011;40769;51.512;5.494;2022-11-06T07:50:21;2.28;;;1.30;;
13807;SDS011;40769;51.512;5.494;2022-11-06T07:52:47;2.00;;;1.35;;
13807;SDS011;40769;51.512;5.494;2022-11-06T07:55:13;2.28;;;1.48;;
13807;SDS011;40769;51.512;5.494;2022-11-06T07:57:38;1.50;;;1.40;;
13807;SDS011;40769;51.512;5.494;2022-11-06T08:00:04;1.55;;;1.20;;
13807;SDS011;40769;51.512;5.494;2022-11-06T08:02:30;3.10;;;1.23;;
13807;SDS011;40769;51.512;5.494;2022-11-06T08:04:56;2.80;;;1.55;;
13807;SDS011;40769;51.512;5.494;2022-11-06T08:07:21;1.70;;;1.30;;
13807;SDS011;40769;51.512;5.494;2022-11-06T08:09:47;1.27;;;1.10;;
13807;SDS011;40769;51.512;5.494;2022-11-06T08:12:12;1.80;;;1.23;;
13807;SDS011;40769;51.512;5.494;2022-11-06T08:14:38;1.27;;;1.02;;
13807;SDS011;40769;51.512;5.494;2022-11-06T08:17:05;2.17;;;1.27;;
13807;SDS011;40769;51.512;5.494;2022-11-06T08:19:30;2.50;;;1.20;;
13807;SDS011;40769;51.512;5.494;2022-11-06T08:21:56;2.50;;;1.13;;
13807;SDS011;40769;51.512;5.494;2022-11-06T08:24:21;2.78;;;1.40;;
13807;SDS011;40769;51.512;5.494;2022-11-06T08:26:47;3.92;;;1.75;;
13807;SDS011;40769;51.512;5.494;2022-11-06T08:29:13;3.55;;;1.60;;
13807;SDS011;40769;51.512;5.494;2022-11-06T08:31:38;1.42;;;1.13;;
13807;SDS011;40769;51.512;5.494;2022-11-06T08:34:04;2.97;;;1.27;;
13807;SDS011;40769;51.512;5.494;2022-11-06T08:36:30;2.10;;;1.15;;
13807;SDS011;40769;51.512;5.494;2022-11-06T08:38:59;3.42;;;1.70;;
13807;SDS011;40769;51.512;5.494;2022-11-06T08:41:25;2.60;;;1.33;;
13807;SDS011;40769;51.512;5.494;2022-11-06T08:43:50;1.48;;;1.38;;
13807;SDS011;40769;51.512;5.494;2022-11-06T08:46:16;2.50;;;1.30;;
13807;SDS011;40769;51.512;5.494;2022-11-06T08:48:42;1.40;;;1.17;;
13807;SDS011;40769;51.512;5.494;2022-11-06T08:51:07;2.15;;;1.00;;
13807;SDS011;40769;51.512;5.494;2022-11-06T08:53:33;2.58;;;1.42;;
13807;SDS011;40769;51.512;5.494;2022-11-06T08:56:00;1.77;;;1.10;;
13807;SDS011;40769;51.512;5.494;2022-11-06T08:58:27;2.65;;;1.20;;
13807;SDS011;40769;51.512;5.494;2022-11-06T09:00:53;2.08;;;1.20;;
13807;SDS011;40769;51.512;5.494;2022-11-06T09:03:19;1.83;;;0.95;;
13807;SDS011;40769;51.512;5.494;2022-11-06T09:05:44;1.83;;;1.23;;
13807;SDS011;40769;51.512;5.494;2022-11-06T09:08:11;1.98;;;1.00;;
13807;SDS011;40769;51.512;5.494;2022-11-06T09:10:38;1.60;;;0.90;;
13807;SDS011;40769;51.512;5.494;2022-11-06T09:13:04;2.38;;;1.10;;
13807;SDS011;40769;51.512;5.494;2022-11-06T09:15:30;2.35;;;1.15;;
13807;SDS011;40769;51.512;5.494;2022-11-06T09:17:56;2.28;;;1.17;;
13807;SDS011;40769;51.512;5.494;2022-11-06T09:20:22;2.50;;;1.33;;
13807;SDS011;40769;51.512;5.494;2022-11-06T09:22:49;3.92;;;1.13;;
13807;SDS011;40769;51.512;5.494;2022-11-06T09:25:15;2.58;;;1.10;;
13807;SDS011;40769;51.512;5.494;2022-11-06T09:30:16;4.78;;;1.42;;
13807;SDS011;40769;51.512;5.494;2022-11-06T09:32:44;2.08;;;1.40;;
13807;SDS011;40769;51.512;5.494;2022-11-06T09:35:11;2.15;;;1.20;;
13807;SDS011;40769;51.512;5.494;2022-11-06T09:37:36;2.45;;;1.05;;
13807;SDS011;40769;51.512;5.494;2022-11-06T09:40:02;1.90;;;1.23;;
13807;SDS011;40769;51.512;5.494;2022-11-06T09:42:52;2.42;;;1.45;;
13807;SDS011;40769;51.512;5.494;2022-11-06T09:45:21;2.33;;;1.10;;
13807;SDS011;40769;51.512;5.494;2022-11-06T09:47:52;1.70;;;0.90;;
13807;SDS011;40769;51.512;5.494;2022-11-06T09:50:26;1.65;;;1.15;;
13807;SDS011;40769;51.512;5.494;2022-11-06T09:52:59;1.15;;;0.93;;
13807;SDS011;40769;51.512;5.494;2022-11-06T09:55:34;2.00;;;1.00;;
13807;SDS011;40769;51.512;5.494;2022-11-06T09:58:04;2.38;;;1.10;;
13807;SDS011;40769;51.512;5.494;2022-11-06T10:00:40;1.65;;;1.00;;
13807;SDS011;40769;51.512;5.494;2022-11-06T10:05:38;1.42;;;1.00;;
13807;SDS011;40769;51.512;5.494;2022-11-06T10:08:06;2.35;;;1.00;;
13807;SDS011;40769;51.512;5.494;2022-11-06T10:13:40;2.17;;;1.10;;
13807;SDS011;40769;51.512;5.494;2022-11-06T10:22:14;2.33;;;1.20;;
13807;SDS011;40769;51.512;5.494;2022-11-06T10:27:24;2.85;;;1.40;;
13807;SDS011;40769;51.512;5.494;2022-11-06T10:38:05;2.10;;;1.17;;
13807;SDS011;40769;51.512;5.494;2022-11-06T10:40:37;2.22;;;1.30;;
13807;SDS011;40769;51.512;5.494;2022-11-06T10:49:01;2.05;;;1.27;;
13807;SDS011;40769;51.512;5.494;2022-11-06T10:57:45;1.92;;;1.08;;
13807;SDS011;40769;51.512;5.494;2022-11-06T11:00:18;2.17;;;1.08;;
13807;SDS011;40769;51.512;5.494;2022-11-06T11:02:54;2.35;;;1.20;;
13807;SDS011;40769;51.512;5.494;2022-11-06T11:05:48;1.88;;;1.10;;
13807;SDS011;40769;51.512;5.494;2022-11-06T11:13:39;2.33;;;1.00;;
13807;SDS011;40769;51.512;5.494;2022-11-06T11:16:13;2.05;;;1.20;;
13807;SDS011;40769;51.512;5.494;2022-11-06T11:18:42;1.60;;;1.15;;
13807;SDS011;40769;51.512;5.494;2022-11-06T11:24:03;1.20;;;0.95;;
13807;SDS011;40769;51.512;5.494;2022-11-06T11:26:30;2.45;;;1.13;;
13807;SDS011;40769;51.512;5.494;2022-11-06T11:28:58;2.42;;;0.95;;
13807;SDS011;40769;51.512;5.494;2022-11-06T11:31:28;2.10;;;1.20;;
13807;SDS011;40769;51.512;5.494;2022-11-06T11:33:56;4.03;;;1.23;;
13807;SDS011;40769;51.512;5.494;2022-11-06T11:36:26;1.90;;;1.10;;
13807;SDS011;40769;51.512;5.494;2022-11-06T11:39:23;2.75;;;0.95;;
13807;SDS011;40769;51.512;5.494;2022-11-06T11:42:20;2.42;;;1.38;;
13807;SDS011;40769;51.512;5.494;2022-11-06T11:44:46;2.80;;;1.30;;
13807;SDS011;40769;51.512;5.494;2022-11-06T11:47:21;4.47;;;1.40;;
13807;SDS011;40769;51.512;5.494;2022-11-06T11:49:48;3.63;;;1.20;;
13807;SDS011;40769;51.512;5.494;2022-11-06T11:52:15;1.00;;;0.85;;
13807;SDS011;40769;51.512;5.494;2022-11-06T11:54:46;4.80;;;1.30;;
13807;SDS011;40769;51.512;5.494;2022-11-06T11:57:22;2.40;;;1.00;;
13807;SDS011;40769;51.512;5.494;2022-11-06T11:59:57;2.83;;;1.00;;
13807;SDS011;40769;51.512;5.494;2022-11-06T12:02:30;2.10;;;1.23;;
13807;SDS011;40769;51.512;5.494;2022-11-06T12:05:01;2.10;;;1.30;;
13807;SDS011;40769;51.512;5.494;2022-11-06T12:07:36;1.48;;;0.90;;
13807;SDS011;40769;51.512;5.494;2022-11-06T12:10:20;2.72;;;1.30;;
13807;SDS011;40769;51.512;5.494;2022-11-06T12:12:53;2.17;;;0.98;;
13807;SDS011;40769;51.512;5.494;2022-11-06T12:15:23;2.05;;;0.93;;
13807;SDS011;40769;51.512;5.494;2022-11-06T12:18:00;2.72;;;1.55;;
13807;SDS011;40769;51.512;5.494;2022-11-06T12:23:16;2.53;;;0.98;;
13807;SDS011;40769;51.512;5.494;2022-11-06T12:26:04;1.73;;;0.90;;
13807;SDS011;40769;51.512;5.494;2022-11-06T12:28:36;2.47;;;1.20;;
13807;SDS011;40769;51.512;5.494;2022-11-06T12:31:26;1.90;;;1.08;;
13807;SDS011;40769;51.512;5.494;2022-11-06T12:33:56;1.42;;;1.00;;
13807;SDS011;40769;51.512;5.494;2022-11-06T12:36:25;1.52;;;1.00;;
13807;SDS011;40769;51.512;5.494;2022-11-06T12:39:00;1.83;;;1.20;;
13807;SDS011;40769;51.512;5.494;2022-11-06T12:41:30;1.30;;;0.80;;
13807;SDS011;40769;51.512;5.494;2022-11-06T12:44:02;1.85;;;1.10;;
13807;SDS011;40769;51.512;5.494;2022-11-06T12:57:20;2.38;;;1.02;;
13807;SDS011;40769;51.512;5.494;2022-11-06T13:00:21;2.10;;;0.90;;
13807;SDS011;40769;51.512;5.494;2022-11-06T13:06:08;2.22;;;1.02;;
13807;SDS011;40769;51.512;5.494;2022-11-06T13:09:10;2.03;;;1.08;;
13807;SDS011;40769;51.512;5.494;2022-11-06T13:11:50;2.00;;;1.10;;
13807;SDS011;40769;51.512;5.494;2022-11-06T13:14:31;3.20;;;1.15;;
13807;SDS011;40769;51.512;5.494;2022-11-06T13:17:20;1.40;;;0.98;;
13807;SDS011;40769;51.512;5.494;2022-11-06T13:22:34;1.75;;;0.90;;
13807;SDS011;40769;51.512;5.494;2022-11-06T13:25:07;2.20;;;1.20;;
13807;SDS011;40769;51.512;5.494;2022-11-06T13:27:41;2.00;;;1.15;;
13807;SDS011;40769;51.512;5.494;2022-11-06T13:30:21;1.95;;;1.20;;
13807;SDS011;40769;51.512;5.494;2022-11-06T13:32:59;1.63;;;1.20;;
13807;SDS011;40769;51.512;5.494;2022-11-06T13:35:26;2.60;;;1.23;;
13807;SDS011;40769;51.512;5.494;2022-11-06T13:37:52;2.05;;;1.10;;
13807;SDS011;40769;51.512;5.494;2022-11-06T13:40:30;2.35;;;1.13;;
13807;SDS011;40769;51.512;5.494;2022-11-06T13:45:40;1.48;;;1.10;;
13807;SDS011;40769;51.512;5.494;2022-11-06T13:53:41;2.15;;;0.90;;
13807;SDS011;40769;51.512;5.494;2022-11-06T13:56:43;2.28;;;1.23;;
13807;SDS011;40769;51.512;5.494;2022-11-06T14:05:20;1.95;;;1.20;;
13807;SDS011;40769;51.512;5.494;2022-11-06T14:08:11;3.67;;;1.30;;
13807;SDS011;40769;51.512;5.494;2022-11-06T14:10:55;3.05;;;1.50;;
13807;SDS011;40769;51.512;5.494;2022-11-06T14:13:28;2.05;;;1.40;;
13807;SDS011;40769;51.512;5.494;2022-11-06T14:16:22;1.85;;;0.93;;
13807;SDS011;40769;51.512;5.494;2022-11-06T14:19:03;2.88;;;1.40;;
13807;SDS011;40769;51.512;5.494;2022-11-06T14:24:27;2.50;;;1.30;;
13807;SDS011;40769;51.512;5.494;2022-11-06T14:26:58;2.10;;;1.25;;
13807;SDS011;40769;51.512;5.494;2022-11-06T14:34:30;2.75;;;1.40;;
13807;SDS011;40769;51.512;5.494;2022-11-06T14:36:57;2.63;;;1.25;;
13807;SDS011;40769;51.512;5.494;2022-11-06T14:40:23;3.03;;;1.40;;
13807;SDS011;40769;51.512;5.494;2022-11-06T14:45:07;3.22;;;1.60;;
13807;SDS011;40769;51.512;5.494;2022-11-06T14:47:37;2.50;;;1.40;;
13807;SDS011;40769;51.512;5.494;2022-11-06T14:52:45;2.03;;;1.38;;
13807;SDS011;40769;51.512;5.494;2022-11-06T14:55:41;2.78;;;1.90;;
13807;SDS011;40769;51.512;5.494;2022-11-06T15:00:54;2.53;;;1.42;;
13807;SDS011;40769;51.512;5.494;2022-11-06T15:05:52;1.92;;;1.63;;
13807;SDS011;40769;51.512;5.494;2022-11-06T15:13:55;1.52;;;1.15;;
13807;SDS011;40769;51.512;5.494;2022-11-06T15:16:41;2.30;;;1.15;;
13807;SDS011;40769;51.512;5.494;2022-11-06T15:19:28;2.35;;;1.40;;
13807;SDS011;40769;51.512;5.494;2022-11-06T15:22:11;2.15;;;1.38;;
13807;SDS011;40769;51.512;5.494;2022-11-06T15:24:50;1.23;;;1.08;;
13807;SDS011;40769;51.512;5.494;2022-11-06T15:30:50;1.70;;;1.30;;
13807;SDS011;40769;51.512;5.494;2022-11-06T15:33:24;2.47;;;1.40;;
13807;SDS011;40769;51.512;5.494;2022-11-06T15:35:54;1.90;;;1.40;;
13807;SDS011;40769;51.512;5.494;2022-11-06T15:38:32;3.45;;;1.58;;
13807;SDS011;40769;51.512;5.494;2022-11-06T15:41:02;1.70;;;1.33;;
13807;SDS011;40769;51.512;5.494;2022-11-06T15:43:34;2.00;;;1.63;;
13807;SDS011;40769;51.512;5.494;2022-11-06T15:46:02;2.28;;;1.90;;
13807;SDS011;40769;51.512;5.494;2022-11-06T15:51:53;2.97;;;2.67;;
13807;SDS011;40769;51.512;5.494;2022-11-06T15:54:34;6.70;;;6.10;;
13807;SDS011;40769;51.512;5.494;2022-11-06T15:57:02;6.60;;;6.00;;
13807;SDS011;40769;51.512;5.494;2022-11-06T15:59:34;3.78;;;3.47;;
13807;SDS011;40769;51.512;5.494;2022-11-06T16:02:02;2.00;;;1.80;;
13807;SDS011;40769;51.512;5.494;2022-11-06T16:04:31;2.25;;;1.70;;
13807;SDS011;40769;51.512;5.494;2022-11-06T16:06:57;1.98;;;1.40;;
13807;SDS011;40769;51.512;5.494;2022-11-06T16:09:24;2.45;;;1.50;;
13807;SDS011;40769;51.512;5.494;2022-11-06T16:11:51;3.42;;;1.90;;
13807;SDS011;40769;51.512;5.494;2022-11-06T16:14:17;2.17;;;1.98;;
13807;SDS011;40769;51.512;5.494;2022-11-06T16:16:47;2.28;;;1.70;;
13807;SDS011;40769;51.512;5.494;2022-11-06T16:19:19;2.60;;;1.67;;
13807;SDS011;40769;51.512;5.494;2022-11-06T16:22:13;1.77;;;1.60;;
13807;SDS011;40769;51.512;5.494;2022-11-06T16:27:10;2.50;;;1.75;;
13807;SDS011;40769;51.512;5.494;2022-11-06T16:29:37;2.45;;;1.80;;
13807;SDS011;40769;51.512;5.494;2022-11-06T16:32:07;2.00;;;1.75;;
13807;SDS011;40769;51.512;5.494;2022-11-06T16:34:43;1.73;;;1.48;;
13807;SDS011;40769;51.512;5.494;2022-11-06T16:39:43;2.90;;;2.00;;
13807;SDS011;40769;51.512;5.494;2022-11-06T16:52:00;2.20;;;1.80;;
13807;SDS011;40769;51.512;5.494;2022-11-06T16:54:40;3.72;;;2.22;;
13807;SDS011;40769;51.512;5.494;2022-11-06T16:57:22;3.40;;;2.17;;
13807;SDS011;40769;51.512;5.494;2022-11-06T16:59:55;2.72;;;2.30;;
13807;SDS011;40769;51.512;5.494;2022-11-06T17:02:46;2.45;;;2.25;;
13807;SDS011;40769;51.512;5.494;2022-11-06T17:05:18;2.63;;;1.98;;
13807;SDS011;40769;51.512;5.494;2022-11-06T17:07:46;2.40;;;2.20;;
13807;SDS011;40769;51.512;5.494;2022-11-06T17:13:01;2.35;;;2.13;;
13807;SDS011;40769;51.512;5.494;2022-11-06T17:15:35;2.40;;;1.95;;
13807;SDS011;40769;51.512;5.494;2022-11-06T17:18:01;2.88;;;2.05;;
13807;SDS011;40769;51.512;5.494;2022-11-06T17:20:27;2.70;;;2.13;;
13807;SDS011;40769;51.512;5.494;2022-11-06T17:22:54;2.85;;;2.30;;
13807;SDS011;40769;51.512;5.494;2022-11-06T17:25:20;2.33;;;2.13;;
13807;SDS011;40769;51.512;5.494;2022-11-06T17:27:45;3.25;;;2.38;;
13807;SDS011;40769;51.512;5.494;2022-11-06T17:30:14;2.38;;;2.10;;
13807;SDS011;40769;51.512;5.494;2022-11-06T17:32:40;2.45;;;2.08;;
13807;SDS011;40769;51.512;5.494;2022-11-06T17:35:07;2.42;;;2.22;;
13807;SDS011;40769;51.512;5.494;2022-11-06T17:37:33;2.90;;;2.38;;
13807;SDS011;40769;51.512;5.494;2022-11-06T17:40:00;2.58;;;2.38;;
13807;SDS011;40769;51.512;5.494;2022-11-06T17:42:25;3.47;;;2.00;;
13807;SDS011;40769;51.512;5.494;2022-11-06T17:44:51;3.00;;;2.28;;
13807;SDS011;40769;51.512;5.494;2022-11-06T17:47:16;2.92;;;2.70;;
13807;SDS011;40769;51.512;5.494;2022-11-06T17:49:42;3.30;;;3.00;;
13807;SDS011;40769;51.512;5.494;2022-11-06T17:52:07;2.53;;;2.33;;
13807;SDS011;40769;51.512;5.494;2022-11-06T17:54:33;2.47;;;2.25;;
13807;SDS011;40769;51.512;5.494;2022-11-06T17:57:02;2.53;;;2.00;;